Time;durP1;ratioP1;P1;durP2;ratioP2;P2;SDS_P1;SDS_P2;PMS_P1;PMS_P2;Temp;Humidity;BMP_temperature;BMP_pressure;BME280_temperature;BME280_humidity;BME280_pressure;Samples;Min_cycle;Max_cycle;Signal;HPM_P1;HPM_P2
2023/12/19 00:01:34;;;;;;;7.45;7.15;;;1.10;99.90;;;;;;5028661;28;20049;-75
2023/12/19 00:04:00;;;;;;;1.48;1.42;;;1.60;99.90;;;;;;5029025;28;20075;-75
2023/12/19 00:06:25;;;;;;;0.50;0.50;;;1.10;99.90;;;;;;5031442;28;20113;-74
2023/12/19 00:08:51;;;;;;;0.30;0.30;;;1.00;99.90;;;;;;5029922;28;20053;-74
2023/12/19 00:11:17;;;;;;;3.65;3.55;;;1.00;99.90;;;;;;5034305;28;20045;-77
2023/12/19 00:13:43;;;;;;;2.83;2.67;;;1.00;99.90;;;;;;5029646;28;20221;-76
2023/12/19 00:16:09;;;;;;;0.17;0.17;;;1.00;99.90;;;;;;5027238;28;20679;-73
2023/12/19 00:18:34;;;;;;;0.10;0.10;;;1.00;99.90;;;;;;5024098;28;20024;-74
2023/12/19 00:21:00;;;;;;;0.20;0.20;;;1.00;99.90;;;;;;5027391;28;20096;-74
2023/12/19 00:23:30;;;;;;;0.20;0.20;;;1.00;99.90;;;;;;5023211;28;20026;-76
2023/12/19 00:26:05;;;;;;;8.45;6.45;;;1.00;99.90;;;;;;5030456;28;20018;-74
2023/12/19 00:28:31;;;;;;;0.10;0.10;;;0.90;99.90;;;;;;5023027;28;20038;-74
2023/12/19 00:30:58;;;;;;;0.20;0.20;;;1.00;99.90;;;;;;5022406;28;20056;-76
2023/12/19 00:33:23;;;;;;;0.28;0.28;;;0.90;99.90;;;;;;5022325;28;20671;-75
2023/12/19 00:35:50;;;;;;;10.35;9.98;;;0.90;99.90;;;;;;5023272;28;20030;-73
2023/12/19 00:38:16;;;;;;;0.20;0.20;;;0.90;99.90;;;;;;5024617;28;20017;-78
2023/12/19 00:40:42;;;;;;;4.03;3.90;;;0.90;99.90;;;;;;5024163;28;20029;-73
2023/12/19 00:43:10;;;;;;;34.85;28.05;;;0.80;99.90;;;;;;5027030;28;20152;-79
2023/12/19 00:45:36;;;;;;;0.10;0.10;;;0.80;99.90;;;;;;5026181;28;20060;-75
2023/12/19 00:48:02;;;;;;;1.05;1.05;;;0.80;99.90;;;;;;5028229;28;20018;-73
2023/12/19 00:50:28;;;;;;;3.85;3.63;;;0.80;99.90;;;;;;5030128;28;20314;-74
2023/12/19 00:52:54;;;;;;;1.77;1.75;;;0.80;99.90;;;;;;5032272;28;21031;-73
2023/12/19 00:55:19;;;;;;;0.25;0.25;;;0.80;99.90;;;;;;5033819;28;20671;-73
2023/12/19 00:57:45;;;;;;;0.20;0.20;;;0.80;99.90;;;;;;5033817;28;20061;-73
2023/12/19 01:00:12;;;;;;;0.10;0.10;;;0.70;99.90;;;;;;5028486;28;20026;-73
2023/12/19 01:02:37;;;;;;;0.40;0.40;;;0.70;99.90;;;;;;5033196;28;20018;-73
2023/12/19 01:05:03;;;;;;;0.17;0.17;;;0.70;99.90;;;;;;5033242;28;20083;-77
2023/12/19 01:07:29;;;;;;;0.30;0.30;;;0.70;99.90;;;;;;5032634;28;20673;-74
2023/12/19 01:09:55;;;;;;;0.60;0.60;;;0.60;99.90;;;;;;5025216;28;20048;-74
2023/12/19 01:12:21;;;;;;;0.25;0.25;;;0.60;99.90;;;;;;5032149;28;20044;-73
2023/12/19 01:14:47;;;;;;;17.85;16.10;;;0.60;99.90;;;;;;5029983;28;20106;-73
2023/12/19 01:17:13;;;;;;;10.32;9.80;;;0.70;99.90;;;;;;5033062;28;20037;-75
2023/12/19 01:19:38;;;;;;;0.28;0.28;;;0.60;99.90;;;;;;5030830;28;20026;-81
2023/12/19 01:22:04;;;;;;;0.40;0.40;;;0.60;99.90;;;;;;5030460;28;20112;-78
2023/12/19 01:24:30;;;;;;;8.05;7.75;;;0.70;99.90;;;;;;5031026;28;20667;-74
2023/12/19 01:26:56;;;;;;;0.15;0.15;;;0.60;99.90;;;;;;5029169;28;20652;-76
2023/12/19 01:29:22;;;;;;;0.57;0.57;;;0.60;99.90;;;;;;5034378;28;20017;-74
2023/12/19 01:31:49;;;;;;;59.90;55.92;;;0.60;99.90;;;;;;5034106;28;20126;-73
2023/12/19 01:34:15;;;;;;;6.97;6.68;;;0.60;99.90;;;;;;5032815;28;20091;-74
2023/12/19 01:36:45;;;;;;;0.20;0.20;;;0.60;99.90;;;;;;5031131;28;20025;-74
2023/12/19 01:39:11;;;;;;;1.27;1.27;;;0.60;99.90;;;;;;5031701;28;20038;-76
2023/12/19 01:41:37;;;;;;;0.15;0.15;;;0.50;99.90;;;;;;5036350;28;20030;-74
2023/12/19 01:44:03;;;;;;;16.98;15.40;;;0.40;99.90;;;;;;5039921;28;20021;-74
2023/12/19 01:46:29;;;;;;;1.33;1.33;;;0.50;99.90;;;;;;5036859;28;20029;-80
2023/12/19 01:48:59;;;;;;;1.00;1.00;;;0.50;99.90;;;;;;5032787;28;20075;-73
2023/12/19 01:51:25;;;;;;;0.25;0.25;;;0.50;99.90;;;;;;5052891;28;20045;-78
2023/12/19 01:53:54;;;;;;;14.23;13.43;;;0.50;99.90;;;;;;5032550;28;20041;-76
2023/12/19 01:56:21;;;;;;;7.45;7.10;;;0.50;99.90;;;;;;5027348;28;20021;-75
2023/12/19 01:58:48;;;;;;;18.65;17.45;;;0.50;99.90;;;;;;5030503;28;20106;-78
2023/12/19 02:01:16;;;;;;;0.20;0.20;;;0.50;99.90;;;;;;5024566;28;20021;-78
2023/12/19 02:03:43;;;;;;;0.20;0.20;;;0.50;99.90;;;;;;5027536;28;20017;-75
2023/12/19 02:06:10;;;;;;;1.05;1.05;;;0.50;99.90;;;;;;5028402;28;20052;-76
2023/12/19 02:08:36;;;;;;;0.35;0.35;;;0.50;99.90;;;;;;5026942;28;20707;-76
2023/12/19 02:11:02;;;;;;;2.17;2.13;;;0.50;99.90;;;;;;5026090;28;20041;-77
2023/12/19 02:13:28;;;;;;;0.38;0.38;;;0.50;99.90;;;;;;5026838;28;20754;-75
2023/12/19 02:15:54;;;;;;;0.15;0.15;;;0.50;99.90;;;;;;5027471;28;20033;-74
2023/12/19 02:18:21;;;;;;;7.03;6.72;;;0.50;99.90;;;;;;5025782;28;20025;-73
2023/12/19 02:20:48;;;;;;;12.85;11.75;;;0.50;99.90;;;;;;5035595;28;20105;-74
2023/12/19 02:23:14;;;;;;;3.13;3.03;;;0.50;99.90;;;;;;5037335;28;20036;-74
2023/12/19 02:25:41;;;;;;;4.43;4.22;;;0.30;99.90;;;;;;5030472;28;20017;-73
2023/12/19 02:28:09;;;;;;;0.10;0.10;;;0.30;99.90;;;;;;5031329;28;20589;-74
2023/12/19 02:30:35;;;;;;;0.20;0.20;;;0.30;99.90;;;;;;5028439;28;20021;-73
2023/12/19 02:33:03;;;;;;;1.10;1.10;;;0.40;99.90;;;;;;5022963;28;20091;-73
2023/12/19 02:35:30;;;;;;;0.20;0.20;;;0.40;99.90;;;;;;5026280;28;20013;-73
2023/12/19 02:37:57;;;;;;;1.55;1.55;;;0.40;99.90;;;;;;5025938;28;20044;-75
2023/12/19 02:40:23;;;;;;;0.10;0.10;;;2.70;99.90;;;;;;5025367;28;20014;-75
2023/12/19 02:42:49;;;;;;;0.20;0.20;;;0.30;99.90;;;;;;5034170;28;20686;-78
2023/12/19 02:45:16;;;;;;;6.90;5.97;;;0.30;99.90;;;;;;5027138;28;20026;-74
2023/12/19 02:47:41;;;;;;;0.20;0.20;;;0.40;99.90;;;;;;5027344;28;20559;-74
2023/12/19 02:50:08;;;;;;;48.00;21.63;;;0.30;99.90;;;;;;5027727;28;20029;-79
2023/12/19 02:52:34;;;;;;;5.67;5.30;;;0.80;99.90;;;;;;5023973;28;20069;-74
2023/12/19 02:55:00;;;;;;;7.10;6.80;;;0.20;99.90;;;;;;5024429;28;20064;-79
2023/12/19 02:57:26;;;;;;;1.33;1.33;;;0.20;99.90;;;;;;5026947;28;20033;-76
2023/12/19 02:59:52;;;;;;;1.90;1.90;;;0.20;99.90;;;;;;5025577;28;20086;-77
2023/12/19 03:02:17;;;;;;;1.10;1.10;;;0.20;99.90;;;;;;5027339;28;20021;-75
2023/12/19 03:04:43;;;;;;;11.80;11.38;;;0.20;99.90;;;;;;5027288;28;20024;-78
2023/12/19 03:07:10;;;;;;;12.27;11.10;;;0.10;99.90;;;;;;5026642;28;20049;-74
2023/12/19 03:09:36;;;;;;;49.83;22.57;;;0.20;99.90;;;;;;5026076;28;20125;-74
2023/12/19 03:12:06;;;;;;;2.43;2.33;;;0.10;99.90;;;;;;5028989;28;20119;-75
2023/12/19 03:14:36;;;;;;;1.43;1.33;;;0.20;99.90;;;;;;5031550;28;20021;-78
2023/12/19 03:17:03;;;;;;;0.20;0.20;;;0.20;99.90;;;;;;5032892;28;20021;-74
2023/12/19 03:19:29;;;;;;;0.20;0.20;;;0.20;99.90;;;;;;5028630;28;20028;-76
2023/12/19 03:21:55;;;;;;;0.63;0.63;;;0.20;99.90;;;;;;5028493;28;20018;-73
2023/12/19 03:24:22;;;;;;;0.20;0.20;;;0.20;99.90;;;;;;5026828;28;20248;-74
2023/12/19 03:26:51;;;;;;;0.13;0.13;;;0.10;99.90;;;;;;5029528;28;20025;-74
2023/12/19 03:29:19;;;;;;;1.70;1.70;;;0.10;99.90;;;;;;5024665;28;20499;-73
2023/12/19 03:31:45;;;;;;;1.02;1.02;;;0.10;99.90;;;;;;5027466;28;20515;-73
2023/12/19 03:34:11;;;;;;;0.20;0.20;;;;;;;;;;5026155;28;20032;-73
2023/12/19 03:36:37;;;;;;;0.30;0.30;;;0.10;99.90;;;;;;5025693;28;20025;-74
2023/12/19 03:39:03;;;;;;;0.20;0.20;;;0.10;99.90;;;;;;5026322;28;20075;-72
2023/12/19 03:41:29;;;;;;;0.73;0.73;;;0.10;99.90;;;;;;5023212;28;20048;-73
2023/12/19 03:43:55;;;;;;;0.40;0.40;;;0.10;99.90;;;;;;5025106;28;20025;-77
2023/12/19 03:46:21;;;;;;;1.75;1.75;;;0.10;99.90;;;;;;5032302;28;20025;-74
2023/12/19 03:48:47;;;;;;;1.48;1.48;;;0.00;99.90;;;;;;5031684;28;20577;-75
2023/12/19 03:51:13;;;;;;;16.88;15.73;;;0.00;99.90;;;;;;5018054;28;20021;-75
2023/12/19 03:53:38;;;;;;;0.10;0.10;;;0.00;99.90;;;;;;5034107;28;20198;-74
2023/12/19 03:56:05;;;;;;;0.30;0.30;;;0.00;99.90;;;;;;5027836;28;20033;-73
2023/12/19 03:58:31;;;;;;;0.20;0.20;;;0.00;99.90;;;;;;5031867;28;20383;-78
2023/12/19 04:00:59;;;;;;;0.20;0.20;;;0.00;99.90;;;;;;5023990;28;20026;-74
2023/12/19 04:03:25;;;;;;;0.43;0.43;;;0.00;99.90;;;;;;5025393;28;20025;-73
2023/12/19 04:05:51;;;;;;;23.80;21.63;;;0.00;99.90;;;;;;5029174;28;20645;-73
2023/12/19 04:08:17;;;;;;;0.20;0.20;;;-0.10;99.90;;;;;;5022256;28;20014;-73
2023/12/19 04:10:42;;;;;;;4.20;4.00;;;0.00;99.90;;;;;;5020973;28;20753;-73
2023/12/19 04:13:08;;;;;;;20.00;18.83;;;-0.10;99.90;;;;;;5022613;28;20029;-73
2023/12/19 04:15:34;;;;;;;0.20;0.20;;;-0.10;99.90;;;;;;5023566;28;20022;-74
2023/12/19 04:18:00;;;;;;;0.20;0.20;;;-0.10;99.90;;;;;;5022308;28;20037;-74
2023/12/19 04:20:25;;;;;;;5.53;3.93;;;-0.10;99.90;;;;;;5026502;28;20021;-74
2023/12/19 04:22:51;;;;;;;1.83;1.80;;;0.00;99.90;;;;;;5024373;28;20029;-73
2023/12/19 04:25:18;;;;;;;23.93;22.37;;;-0.10;99.90;;;;;;5025896;28;20033;-75
2023/12/19 04:27:44;;;;;;;3.07;2.97;;;0.80;99.90;;;;;;5023843;28;20030;-75
2023/12/19 04:30:10;;;;;;;0.57;0.57;;;-0.10;99.90;;;;;;5024355;28;20660;-73
2023/12/19 04:32:36;;;;;;;2.33;2.23;;;-0.20;99.90;;;;;;5022651;28;20084;-74
2023/12/19 04:35:03;;;;;;;3.33;3.23;;;-0.20;99.90;;;;;;5024683;28;20029;-75
2023/12/19 04:37:28;;;;;;;0.40;0.40;;;-0.20;99.90;;;;;;5022865;28;20037;-74
2023/12/19 04:39:54;;;;;;;0.30;0.30;;;-0.20;99.90;;;;;;5023976;28;20025;-73
2023/12/19 04:42:20;;;;;;;6.37;6.17;;;-0.20;99.90;;;;;;5022095;28;20071;-78
2023/12/19 04:44:46;;;;;;;7.03;2.20;;;-0.20;99.90;;;;;;5024484;28;20719;-74
2023/12/19 04:47:14;;;;;;;1.30;1.30;;;-0.20;99.90;;;;;;5027512;28;20037;-77
2023/12/19 04:49:40;;;;;;;0.47;0.47;;;-0.20;99.90;;;;;;5031666;28;20026;-79
2023/12/19 04:52:06;;;;;;;1.03;1.03;;;-0.40;99.90;;;;;;5032886;28;20053;-80
2023/12/19 04:54:33;;;;;;;0.30;0.30;;;-0.30;99.90;;;;;;5034226;28;20028;-74
2023/12/19 04:56:58;;;;;;;8.33;8.03;;;-0.30;99.90;;;;;;5042200;28;20025;-77
2023/12/19 04:59:24;;;;;;;0.20;0.20;;;-0.30;99.90;;;;;;5048671;28;20025;-76
2023/12/19 05:01:50;;;;;;;1.93;1.90;;;-0.30;99.90;;;;;;5048982;28;20025;-75
2023/12/19 05:04:16;;;;;;;2.53;2.43;;;1.60;99.90;;;;;;5050364;28;20029;-74
2023/12/19 05:06:42;;;;;;;3.67;3.50;;;-0.30;99.90;;;;;;5051386;28;20044;-77
2023/12/19 05:09:08;;;;;;;0.87;0.87;;;-0.30;99.90;;;;;;5050586;28;20055;-79
2023/12/19 05:11:34;;;;;;;0.20;0.20;;;-0.30;99.90;;;;;;5046829;28;20411;-77
2023/12/19 05:14:00;;;;;;;0.20;0.20;;;-0.30;99.90;;;;;;5047675;28;20032;-78
2023/12/19 05:16:27;;;;;;;8.43;8.10;;;-0.30;99.90;;;;;;5042302;28;20017;-75
2023/12/19 05:18:53;;;;;;;4.30;4.10;;;-0.30;99.90;;;;;;5054853;28;20028;-76
2023/12/19 05:21:21;;;;;;;39.37;36.07;;;-0.30;99.90;;;;;;5055523;28;20021;-75
2023/12/19 05:23:48;;;;;;;12.93;7.77;;;-0.30;99.90;;;;;;5054913;28;20025;-74
2023/12/19 05:26:14;;;;;;;3.85;3.72;;;-0.30;99.90;;;;;;5052101;28;20090;-73
2023/12/19 05:28:40;;;;;;;2.03;2.00;;;-0.40;99.90;;;;;;5050953;28;20104;-76
2023/12/19 05:31:08;;;;;;;2.13;2.10;;;-0.40;99.90;;;;;;5047301;28;20017;-80
2023/12/19 05:33:34;;;;;;;0.10;0.10;;;-0.40;99.90;;;;;;5045548;28;20036;-74
2023/12/19 05:36:00;;;;;;;0.20;0.20;;;-0.40;99.90;;;;;;5046977;28;20074;-76
2023/12/19 05:38:26;;;;;;;24.97;23.77;;;-0.50;99.90;;;;;;5054026;28;20024;-74
2023/12/19 05:40:57;;;;;;;3.03;2.93;;;-0.40;99.90;;;;;;5056066;28;20029;-74
2023/12/19 05:43:23;;;;;;;0.43;0.43;;;-0.40;99.90;;;;;;5044584;28;20029;-77
2023/12/19 05:45:49;;;;;;;26.70;8.37;;;-0.50;99.90;;;;;;5046239;28;20290;-74
2023/12/19 05:48:15;;;;;;;0.30;0.30;;;-0.40;99.90;;;;;;5046961;28;20021;-77
2023/12/19 05:50:41;;;;;;;0.20;0.20;;;-0.40;99.90;;;;;;5045618;28;20120;-80
2023/12/19 05:53:07;;;;;;;5.87;5.40;;;-0.40;99.90;;;;;;5045050;28;20683;-77
2023/12/19 05:55:33;;;;;;;15.43;14.67;;;-0.40;99.90;;;;;;5043267;28;20094;-81
2023/12/19 05:57:59;;;;;;;1.03;1.03;;;-0.40;99.90;;;;;;5044599;28;20654;-77
2023/12/19 06:00:24;;;;;;;0.20;0.20;;;-0.40;99.90;;;;;;5044786;28;20426;-74
2023/12/19 06:02:50;;;;;;;0.20;0.20;;;-1.00;99.90;;;;;;5043349;28;20020;-73
2023/12/19 06:05:18;;;;;;;15.10;14.33;;;-0.40;99.90;;;;;;5044581;28;20037;-75
2023/12/19 06:07:43;;;;;;;0.20;0.20;;;-0.40;99.90;;;;;;5045535;28;20305;-75
2023/12/19 06:10:13;;;;;;;3.23;3.10;;;-0.40;99.90;;;;;;5044263;28;20553;-74
2023/12/19 06:12:40;;;;;;;1.03;1.03;;;-0.30;99.90;;;;;;5044255;28;20091;-76
2023/12/19 06:15:11;;;;;;;4.53;4.33;;;-0.30;99.90;;;;;;5044832;28;20352;-73
2023/12/19 06:17:46;;;;;;;0.50;0.50;;;-0.30;99.90;;;;;;5046201;28;20063;-77
2023/12/19 06:20:12;;;;;;;0.40;0.40;;;-0.40;99.90;;;;;;5047307;28;20111;-78
2023/12/19 06:22:43;;;;;;;0.20;0.20;;;-0.40;99.90;;;;;;5049693;28;20064;-75
2023/12/19 06:25:09;;;;;;;3.90;3.80;;;-0.30;99.90;;;;;;5051745;28;20063;-79
2023/12/19 06:27:35;;;;;;;2.23;2.13;;;-0.30;99.90;;;;;;5046232;28;20063;-75
2023/12/19 06:30:05;;;;;;;0.20;0.20;;;-0.40;99.90;;;;;;5046130;28;20036;-73
2023/12/19 06:32:31;;;;;;;14.37;13.07;;;-0.40;99.90;;;;;;5035282;28;20045;-76
2023/12/19 06:34:57;;;;;;;33.50;28.43;;;-0.40;99.90;;;;;;5019566;28;20495;-74
2023/12/19 06:37:23;;;;;;;0.90;0.90;;;-0.40;99.90;;;;;;5022489;28;20176;-75
2023/12/19 06:39:49;;;;;;;0.40;0.40;;;-0.40;99.90;;;;;;5023598;28;20832;-75
2023/12/19 06:42:24;;;;;;;7.60;7.30;;;-0.40;99.90;;;;;;5024262;28;20108;-74
2023/12/19 06:44:53;;;;;;;0.40;0.40;;;-0.40;99.90;;;;;;5029430;28;20032;-75
2023/12/19 06:47:19;;;;;;;0.40;0.40;;;-0.40;99.90;;;;;;5024887;28;20175;-75
2023/12/19 06:49:45;;;;;;;1.23;1.23;;;-0.50;99.90;;;;;;5023688;28;20116;-75
2023/12/19 06:52:11;;;;;;;6.10;5.87;;;-0.40;99.90;;;;;;5022251;28;20040;-75
2023/12/19 06:54:39;;;;;;;3.73;3.60;;;-0.40;99.90;;;;;;5026890;28;20028;-76
2023/12/19 06:57:05;;;;;;;5.33;5.13;;;-0.30;99.90;;;;;;5025173;28;20694;-75
2023/12/19 06:59:33;;;;;;;0.30;0.30;;;-0.50;99.90;;;;;;5029280;28;20017;-74
2023/12/19 07:01:59;;;;;;;0.20;0.20;;;-0.40;99.90;;;;;;5029712;28;20028;-75
2023/12/19 07:04:26;;;;;;;0.87;0.87;;;-0.50;99.90;;;;;;5034804;28;20018;-75
2023/12/19 07:06:53;;;;;;;46.53;23.63;;;-0.50;99.90;;;;;;5026983;28;20026;-76
2023/12/19 07:09:19;;;;;;;2.53;2.47;;;-0.50;99.90;;;;;;5019674;28;20643;-76
2023/12/19 07:11:45;;;;;;;0.47;0.47;;;-0.40;99.90;;;;;;5023554;28;20057;-75
2023/12/19 07:14:17;;;;;;;5.03;4.83;;;-0.50;99.90;;;;;;5020759;28;20426;-75
2023/12/19 07:16:43;;;;;;;0.10;0.10;;;;;;;;;;5026036;28;20017;-75
2023/12/19 07:19:09;;;;;;;4.43;4.23;;;-0.60;99.90;;;;;;5023598;28;20045;-75
2023/12/19 07:21:36;;;;;;;12.00;11.33;;;-0.60;99.90;;;;;;5022185;28;20040;-75
2023/12/19 07:24:01;;;;;;;31.43;29.10;;;-0.60;99.90;;;;;;5024705;28;20022;-74
2023/12/19 07:26:29;;;;;;;9.17;8.80;;;-0.60;99.90;;;;;;5020890;28;20564;-75
2023/12/19 07:28:57;;;;;;;6.13;5.80;;;-0.50;99.90;;;;;;5022966;28;20017;-75
2023/12/19 07:31:33;;;;;;;0.80;0.80;;;-0.50;99.90;;;;;;5027830;28;20028;-76
2023/12/19 07:34:04;;;;;;;3.90;3.70;;;-0.40;99.90;;;;;;5022433;28;20025;-75
2023/12/19 07:36:30;;;;;;;0.30;0.30;;;-0.40;99.90;;;;;;5024357;28;20065;-76
2023/12/19 07:38:57;;;;;;;23.10;21.97;;;-0.20;99.90;;;;;;5052682;28;20033;-74
2023/12/19 07:41:26;;;;;;;32.25;30.48;;;-0.10;99.90;;;;;;5035312;28;20021;-74
2023/12/19 07:43:55;;;;;;;0.20;0.20;;;-0.10;99.90;;;;;;5033057;28;20225;-79
2023/12/19 07:46:20;;;;;;;0.20;0.20;;;0.00;99.90;;;;;;5035242;28;20442;-78
2023/12/19 07:48:46;;;;;;;20.37;18.47;;;0.10;99.90;;;;;;5037924;28;20029;-75
2023/12/19 07:51:26;;;;;;;24.13;18.92;;;0.10;99.90;;;;;;5041311;28;20025;-74
2023/12/19 07:53:54;;;;;;;5.82;5.57;;;0.20;99.90;;;;;;5040219;28;20068;-77
2023/12/19 07:56:20;;;;;;;11.85;11.38;;;0.30;99.90;;;;;;5037061;28;20025;-78
2023/12/19 07:58:46;;;;;;;0.20;0.20;;;0.40;99.90;;;;;;5036082;28;20017;-76
2023/12/19 08:01:13;;;;;;;2.28;2.17;;;0.50;99.90;;;;;;5030096;28;20017;-73
2023/12/19 08:03:40;;;;;;;2.72;2.63;;;0.50;99.90;;;;;;5033862;28;20589;-74
2023/12/19 08:06:06;;;;;;;0.15;0.15;;;0.60;99.90;;;;;;5040926;28;20021;-74
2023/12/19 08:08:32;;;;;;;2.13;2.03;;;0.60;99.90;;;;;;5039774;28;20018;-73
2023/12/19 08:10:58;;;;;;;4.60;4.40;;;0.70;99.90;;;;;;5042560;28;20045;-74
2023/12/19 08:13:24;;;;;;;54.33;40.53;;;0.70;99.90;;;;;;5040259;28;20708;-75
2023/12/19 08:15:50;;;;;;;28.67;20.67;;;0.70;99.90;;;;;;5040048;28;20032;-75
2023/12/19 08:18:16;;;;;;;0.35;0.35;;;0.80;99.90;;;;;;5041861;28;20415;-78
2023/12/19 08:20:43;;;;;;;14.55;13.27;;;0.90;99.90;;;;;;5044283;28;20021;-74
2023/12/19 08:23:09;;;;;;;47.95;32.85;;;0.90;99.90;;;;;;5040684;28;20025;-76
2023/12/19 08:25:38;;;;;;;0.40;0.40;;;1.00;99.90;;;;;;5047669;28;20021;-74
2023/12/19 08:28:04;;;;;;;3.40;3.28;;;1.10;99.90;;;;;;5041010;28;20036;-74
2023/12/19 08:30:30;;;;;;;6.30;5.95;;;1.10;99.90;;;;;;5041848;28;20017;-74
2023/12/19 08:32:57;;;;;;;3.03;2.92;;;1.20;99.90;;;;;;5042851;28;20029;-77
2023/12/19 08:35:23;;;;;;;5.32;5.13;;;1.20;99.90;;;;;;5042150;28;20082;-74
2023/12/19 08:37:49;;;;;;;32.35;30.08;;;1.20;99.90;;;;;;5048035;28;20033;-76
2023/12/19 08:40:16;;;;;;;13.00;12.45;;;1.30;99.90;;;;;;5049037;28;20025;-74
2023/12/19 08:42:43;;;;;;;0.63;0.63;;;1.30;99.90;;;;;;5052311;28;20043;-74
2023/12/19 08:45:16;;;;;;;1.95;1.85;;;1.30;99.90;;;;;;5044593;28;20765;-73
2023/12/19 08:47:46;;;;;;;7.93;7.57;;;1.30;99.90;;;;;;5043008;28;20028;-73
2023/12/19 08:50:13;;;;;;;6.13;5.82;;;1.30;99.90;;;;;;5047301;28;20021;-75
2023/12/19 08:52:40;;;;;;;0.45;0.45;;;1.30;99.90;;;;;;5047804;28;20037;-81
2023/12/19 08:55:10;;;;;;;12.98;12.23;;;1.10;99.90;;;;;;5043587;28;20017;-74
2023/12/19 08:57:42;;;;;;;3.03;2.92;;;1.10;99.90;;;;;;5040136;28;20037;-72
2023/12/19 09:00:19;;;;;;;5.05;4.75;;;1.00;99.90;;;;;;5039743;28;20025;-73
2023/12/19 09:02:46;;;;;;;3.70;3.50;;;1.00;99.90;;;;;;5041148;28;20018;-75
2023/12/19 09:05:13;;;;;;;0.40;0.40;;;1.00;99.90;;;;;;5040036;28;20191;-82
2023/12/19 09:07:40;;;;;;;2.30;2.20;;;1.00;99.90;;;;;;5043537;28;20096;-74
2023/12/19 09:10:07;;;;;;;10.25;9.85;;;1.10;99.90;;;;;;5044500;28;20681;-75
2023/12/19 09:12:34;;;;;;;25.85;24.13;;;1.10;99.90;;;;;;5044185;28;20039;-81
2023/12/19 09:15:02;;;;;;;17.40;16.48;;;1.00;99.90;;;;;;5043623;28;20655;-77
2023/12/19 09:17:28;;;;;;;1.08;1.05;;;1.10;99.90;;;;;;5045207;28;20028;-74
2023/12/19 09:19:55;;;;;;;21.90;21.02;;;1.10;99.90;;;;;;5048190;28;20068;-75
2023/12/19 09:22:21;;;;;;;0.10;0.10;;;1.10;99.90;;;;;;5045252;28;20009;-80
2023/12/19 09:24:50;;;;;;;20.58;19.13;;;1.10;99.90;;;;;;5046425;28;20025;-73
2023/12/19 09:27:16;;;;;;;0.30;0.30;;;1.10;99.90;;;;;;5046757;28;20017;-75
2023/12/19 09:29:42;;;;;;;1.30;1.30;;;1.20;99.90;;;;;;5046429;28;20125;-74
2023/12/19 09:32:07;;;;;;;8.02;7.43;;;1.20;99.90;;;;;;5044910;28;20112;-78
2023/12/19 09:34:43;;;;;;;5.47;3.20;;;1.30;99.90;;;;;;5028923;28;20634;-74
2023/12/19 09:37:09;;;;;;;2.22;2.15;;;1.90;99.90;;;;;;5026341;28;20323;-74
2023/12/19 09:39:34;;;;;;;24.65;19.42;;;1.90;99.90;;;;;;5029105;28;20643;-75
2023/12/19 09:42:01;;;;;;;4.15;3.95;;;2.00;99.90;;;;;;5028336;28;20105;-81
2023/12/19 09:44:28;;;;;;;11.65;10.90;;;2.00;99.90;;;;;;5031491;28;20463;-76
2023/12/19 09:46:54;;;;;;;0.10;0.10;;;1.90;99.90;;;;;;5035587;28;20041;-77
2023/12/19 09:49:25;;;;;;;20.63;19.27;;;2.00;99.90;;;;;;5038357;28;20745;-75
2023/12/19 09:51:53;;;;;;;0.00;0.00;;;2.50;99.90;;;;;;5026180;28;20203;-75
2023/12/19 09:54:23;;;;;;;20.13;19.02;;;2.70;99.90;;;;;;5030435;28;20497;-74
2023/12/19 09:56:52;;;;;;;35.50;33.72;;;2.60;99.90;;;;;;5029230;28;20658;-73
2023/12/19 09:59:19;;;;;;;2.45;2.35;;;2.60;99.90;;;;;;5022085;28;20025;-74
2023/12/19 10:01:45;;;;;;;3.40;3.30;;;2.60;99.90;;;;;;5021926;28;20037;-75
2023/12/19 10:04:16;;;;;;;7.22;6.90;;;2.50;99.90;;;;;;5021747;28;20049;-74
2023/12/19 10:07:02;;;;;;;14.43;13.65;;;2.50;99.90;;;;;;5021732;28;20687;-76
2023/12/19 10:09:28;;;;;;;0.52;0.52;;;2.50;99.90;;;;;;5019669;28;20041;-76
2023/12/19 10:12:10;;;;;;;0.40;0.40;;;2.60;99.90;;;;;;5020773;28;20033;-75
2023/12/19 10:14:36;;;;;;;13.80;13.15;;;2.60;99.90;;;;;;5020856;28;20049;-74
2023/12/19 10:17:04;;;;;;;18.50;16.85;;;2.60;99.90;;;;;;5021686;28;20041;-75
2023/12/19 10:19:30;;;;;;;4.82;4.57;;;2.70;99.90;;;;;;5019925;28;20028;-74
2023/12/19 10:22:07;;;;;;;13.35;12.80;;;3.30;99.90;;;;;;5019427;28;20014;-77
2023/12/19 10:24:33;;;;;;;72.53;67.10;;;3.50;99.90;;;;;;5021172;28;20029;-75
2023/12/19 10:27:05;;;;;;;27.92;26.75;;;3.70;99.90;;;;;;5021286;28;20018;-75
2023/12/19 10:29:42;;;;;;;19.73;18.83;;;3.70;99.90;;;;;;5021778;28;20025;-75
2023/12/19 10:32:16;;;;;;;2.92;2.83;;;3.80;99.90;;;;;;5021266;28;20159;-77
2023/12/19 10:34:43;;;;;;;0.95;0.95;;;3.90;99.90;;;;;;5021396;28;20029;-74
2023/12/19 10:37:14;;;;;;;24.50;23.50;;;4.20;99.90;;;;;;5023659;28;20033;-75
2023/12/19 10:39:44;;;;;;;28.02;26.27;;;4.30;99.90;;;;;;5023539;28;20028;-77
2023/12/19 10:42:11;;;;;;;0.22;0.22;;;4.40;99.90;;;;;;5023794;28;20025;-74
2023/12/19 10:44:39;;;;;;;18.48;17.35;;;4.50;99.90;;;;;;5022221;28;20088;-74
2023/12/19 10:47:07;;;;;;;0.20;0.20;;;4.60;99.90;;;;;;5009783;28;20033;-79
2023/12/19 10:49:34;;;;;;;6.93;6.70;;;4.50;99.90;;;;;;5022406;28;20072;-78
2023/12/19 10:52:05;;;;;;;5.75;5.28;;;4.60;99.90;;;;;;5024303;28;20029;-79
2023/12/19 10:54:33;;;;;;;0.73;0.73;;;4.60;99.90;;;;;;5025509;28;20038;-78
2023/12/19 10:57:16;;;;;;;7.15;6.68;;;4.60;99.90;;;;;;5025257;28;20376;-75
2023/12/19 10:59:55;;;;;;;7.93;7.68;;;4.60;99.90;;;;;;5026521;28;20041;-77
2023/12/19 11:02:54;;;;;;;0.95;0.95;;;4.60;99.90;;;;;;5025262;28;20079;-74
2023/12/19 11:05:40;;;;;;;1.95;1.85;;;4.90;99.90;;;;;;5022618;28;20025;-77
2023/12/19 11:08:16;;;;;;;13.25;12.02;;;5.00;99.90;;;;;;5027292;28;20034;-79
2023/12/19 11:11:16;;;;;;;0.40;0.40;;;5.10;99.90;;;;;;5030675;28;20067;-78
2023/12/19 11:13:46;;;;;;;15.52;14.90;;;5.20;99.90;;;;;;5032211;28;20029;-74
2023/12/19 11:16:48;;;;;;;1.45;1.45;;;5.30;99.90;;;;;;5024120;28;20029;-74
2023/12/19 11:19:26;;;;;;;13.02;12.15;;;5.40;99.90;;;;;;5022378;28;20053;-73
2023/12/19 11:22:09;;;;;;;28.38;26.50;;;5.50;99.90;;;;;;5020326;28;20119;-75
2023/12/19 11:24:45;;;;;;;10.43;9.43;;;5.60;99.90;;;;;;5021133;28;20760;-74
2023/12/19 11:27:10;;;;;;;9.70;9.23;;;5.70;99.90;;;;;;5029702;28;20063;-77
2023/12/19 11:29:53;;;;;;;38.15;34.10;;;5.80;99.90;;;;;;5026918;28;20571;-79
2023/12/19 11:32:28;;;;;;;9.82;4.20;;;6.00;99.90;;;;;;5026521;28;20048;-74
2023/12/19 11:35:12;;;;;;;41.40;7.55;;;6.20;99.90;;;;;;5025847;28;20248;-74
2023/12/19 11:37:39;;;;;;;0.28;0.28;;;6.30;99.90;;;;;;5022211;28;20029;-77
2023/12/19 11:40:08;;;;;;;2.35;2.25;;;6.20;99.90;;;;;;5022151;28;20293;-77
2023/12/19 11:42:57;;;;;;;2.53;2.42;;;6.30;99.90;;;;;;5025209;28;20017;-78
2023/12/19 11:45:23;;;;;;;21.02;20.27;;;;;;;;;;5024344;28;20037;-75
2023/12/19 11:47:49;;;;;;;3.45;2.17;;;6.80;99.90;;;;;;5021962;28;20041;-76
2023/12/19 11:50:39;;;;;;;22.33;20.88;;;7.00;99.90;;;;;;5022032;28;20021;-75
2023/12/19 11:53:08;;;;;;;35.55;33.42;;;7.20;99.90;;;;;;5020931;28;20037;-75
2023/12/19 11:55:34;;;;;;;0.40;0.40;;;7.40;99.90;;;;;;5023023;28;20048;-76
2023/12/19 11:58:10;;;;;;;2.17;2.08;;;7.40;99.90;;;;;;5028961;28;20033;-77
2023/12/19 12:00:36;;;;;;;6.00;5.57;;;7.40;99.90;;;;;;5023377;28;20109;-74
2023/12/19 12:03:12;;;;;;;2.35;2.25;;;7.60;99.90;;;;;;5028441;28;20069;-76
2023/12/19 12:05:41;;;;;;;0.20;0.20;;;7.50;99.90;;;;;;5012879;28;20720;-75
2023/12/19 12:08:12;;;;;;;1.98;1.88;;;7.70;99.90;;;;;;4996736;28;20052;-76
2023/12/19 12:10:39;;;;;;;8.38;7.68;;;7.90;99.90;;;;;;5003480;28;20053;-76
2023/12/19 12:13:19;;;;;;;15.77;14.30;;;7.70;99.90;;;;;;5004038;28;20042;-75
2023/12/19 12:15:51;;;;;;;0.82;0.82;;;7.80;99.90;;;;;;4985742;28;20096;-74
2023/12/19 12:18:18;;;;;;;2.42;2.33;;;7.90;99.90;;;;;;4985798;28;20048;-76
2023/12/19 12:20:44;;;;;;;0.47;0.47;;;8.00;99.90;;;;;;4987221;28;20113;-76
2023/12/19 12:23:10;;;;;;;18.92;17.92;;;8.00;99.90;;;;;;5020215;28;20121;-76
2023/12/19 12:25:38;;;;;;;1.35;1.33;;;8.10;99.90;;;;;;5026941;28;20523;-76
2023/12/19 12:28:17;;;;;;;0.50;0.50;;;8.10;99.90;;;;;;5027521;28;20056;-75
2023/12/19 12:30:44;;;;;;;0.22;0.22;;;8.20;99.90;;;;;;5024998;28;20047;-76
2023/12/19 12:33:10;;;;;;;2.50;2.38;;;8.30;99.90;;;;;;5028700;28;20042;-76
2023/12/19 12:35:38;;;;;;;3.75;3.58;;;8.20;99.90;;;;;;5029502;28;20033;-75
2023/12/19 12:38:17;;;;;;;4.47;4.28;;;8.10;99.90;;;;;;5027930;28;20129;-76
2023/12/19 12:41:00;;;;;;;0.63;0.63;;;8.30;99.90;;;;;;5031710;28;20021;-76
2023/12/19 12:43:49;;;;;;;1.52;1.52;;;11.00;99.90;;;;;;5036887;28;20120;-76
2023/12/19 12:46:24;;;;;;;16.05;15.20;;;7.90;99.90;;;;;;5025636;28;20022;-75
2023/12/19 12:48:53;;;;;;;1.77;1.73;;;7.80;99.90;;;;;;5026397;28;20013;-77
2023/12/19 12:51:20;;;;;;;2.55;2.45;;;7.80;99.90;;;;;;5025712;28;20014;-76
2023/12/19 12:54:10;;;;;;;3.90;3.55;;;7.80;99.90;;;;;;5025199;28;20692;-76
2023/12/19 12:56:38;;;;;;;0.30;0.30;;;7.90;99.90;;;;;;5032387;28;20013;-77